sensor_id;sensor_type;location;lat;lon;timestamp;temperature;humidity
64209;DHT22;50527;52.414;13.226;2022-10-20T00:02:21;6.20;99.90
64209;DHT22;50527;52.414;13.226;2022-10-20T00:04:47;6.20;99.90
64209;DHT22;50527;52.414;13.226;2022-10-20T00:07:12;6.20;99.90
64209;DHT22;50527;52.414;13.226;2022-10-20T00:09:38;6.20;99.90
64209;DHT22;50527;52.414;13.226;2022-10-20T00:12:04;6.10;99.90
64209;DHT22;50527;52.414;13.226;2022-10-20T00:14:29;6.10;99.90
64209;DHT22;50527;52.414;13.226;2022-10-20T00:16:55;6.10;99.90
64209;DHT22;50527;52.414;13.226;2022-10-20T00:19:20;6.10;99.90
64209;DHT22;50527;52.414;13.226;2022-10-20T00:21:45;6.00;99.90
64209;DHT22;50527;52.414;13.226;2022-10-20T00:24:11;6.00;99.90
64209;DHT22;50527;52.414;13.226;2022-10-20T00:26:36;6.00;99.90
64209;DHT22;50527;52.414;13.226;2022-10-20T00:29:03;6.00;99.90
64209;DHT22;50527;52.414;13.226;2022-10-20T00:31:29;6.00;99.90
64209;DHT22;50527;52.414;13.226;2022-10-20T00:33:54;6.00;99.90
64209;DHT22;50527;52.414;13.226;2022-10-20T00:36:21;6.00;99.90
64209;DHT22;50527;52.414;13.226;2022-10-20T00:38:47;6.00;99.90
64209;DHT22;50527;52.414;13.226;2022-10-20T00:41:15;5.90;99.90
64209;DHT22;50527;52.414;13.226;2022-10-20T00:43:50;5.90;99.90
64209;DHT22;50527;52.414;13.226;2022-10-20T00:46:24;5.90;99.90
64209;DHT22;50527;52.414;13.226;2022-10-20T00:48:57;5.80;99.90
64209;DHT22;50527;52.414;13.226;2022-10-20T00:51:27;5.90;99.90
64209;DHT22;50527;52.414;13.226;2022-10-20T00:53:58;5.90;99.90
64209;DHT22;50527;52.414;13.226;2022-10-20T00:56:26;5.80;99.90
64209;DHT22;50527;52.414;13.226;2022-10-20T00:58:52;5.80;99.90
64209;DHT22;50527;52.414;13.226;2022-10-20T01:01:18;5.80;99.90
64209;DHT22;50527;52.414;13.226;2022-10-20T01:03:47;5.80;99.90
64209;DHT22;50527;52.414;13.226;2022-10-20T01:06:15;5.80;99.90
64209;DHT22;50527;52.414;13.226;2022-10-20T01:08:40;5.80;99.90
64209;DHT22;50527;52.414;13.226;2022-10-20T01:11:16;5.80;99.90
64209;DHT22;50527;52.414;13.226;2022-10-20T01:13:52;5.80;99.90
64209;DHT22;50527;52.414;13.226;2022-10-20T01:25:40;5.80;99.90
64209;DHT22;50527;52.414;13.226;2022-10-20T01:28:15;5.80;99.90
64209;DHT22;50527;52.414;13.226;2022-10-20T01:30:48;5.70;99.90
64209;DHT22;50527;52.414;13.226;2022-10-20T01:33:33;5.70;99.90
64209;DHT22;50527;52.414;13.226;2022-10-20T01:36:38;5.60;99.90
64209;DHT22;50527;52.414;13.226;2022-10-20T01:39:07;5.70;99.90
64209;DHT22;50527;52.414;13.226;2022-10-20T01:41:42;5.70;99.90
64209;DHT22;50527;52.414;13.226;2022-10-20T01:44:14;5.70;99.90
64209;DHT22;50527;52.414;13.226;2022-10-20T01:46:41;5.70;99.90
64209;DHT22;50527;52.414;13.226;2022-10-20T01:49:08;5.70;99.90
64209;DHT22;50527;52.414;13.226;2022-10-20T01:51:34;5.70;99.90
64209;DHT22;50527;52.414;13.226;2022-10-20T01:53:59;5.60;99.90
64209;DHT22;50527;52.414;13.226;2022-10-20T01:56:33;5.60;99.90
64209;DHT22;50527;52.414;13.226;2022-10-20T01:59:28;5.60;99.90
64209;DHT22;50527;52.414;13.226;2022-10-20T02:02:16;5.60;99.90
64209;DHT22;50527;52.414;13.226;2022-10-20T02:05:18;5.50;99.90
64209;DHT22;50527;52.414;13.226;2022-10-20T02:07:47;5.60;99.90
64209;DHT22;50527;52.414;13.226;2022-10-20T02:10:20;5.60;99.90
64209;DHT22;50527;52.414;13.226;2022-10-20T02:12:51;5.60;99.90
64209;DHT22;50527;52.414;13.226;2022-10-20T02:15:22;5.60;99.90
64209;DHT22;50527;52.414;13.226;2022-10-20T02:17:53;5.50;99.70
64209;DHT22;50527;52.414;13.226;2022-10-20T02:20:20;5.50;99.90
64209;DHT22;50527;52.414;13.226;2022-10-20T02:22:46;5.50;99.90
64209;DHT22;50527;52.414;13.226;2022-10-20T02:25:13;5.50;99.90
64209;DHT22;50527;52.414;13.226;2022-10-20T02:27:42;5.50;99.90
64209;DHT22;50527;52.414;13.226;2022-10-20T02:30:12;5.50;99.90
64209;DHT22;50527;52.414;13.226;2022-10-20T02:32:41;5.50;99.90
64209;DHT22;50527;52.414;13.226;2022-10-20T02:35:11;5.40;99.90
64209;DHT22;50527;52.414;13.226;2022-10-20T02:37:37;5.40;99.90
64209;DHT22;50527;52.414;13.226;2022-10-20T02:40:03;5.40;99.90
64209;DHT22;50527;52.414;13.226;2022-10-20T02:42:29;5.40;99.90
64209;DHT22;50527;52.414;13.226;2022-10-20T02:44:54;5.40;99.90
64209;DHT22;50527;52.414;13.226;2022-10-20T02:47:20;5.40;99.90
64209;DHT22;50527;52.414;13.226;2022-10-20T02:49:46;5.40;99.90
64209;DHT22;50527;52.414;13.226;2022-10-20T02:52:12;5.30;99.90
64209;DHT22;50527;52.414;13.226;2022-10-20T02:54:37;5.30;99.90
64209;DHT22;50527;52.414;13.226;2022-10-20T02:57:03;5.30;99.90
64209;DHT22;50527;52.414;13.226;2022-10-20T02:59:28;5.30;99.90
64209;DHT22;50527;52.414;13.226;2022-10-20T03:01:54;5.30;99.90
64209;DHT22;50527;52.414;13.226;2022-10-20T03:04:19;5.30;99.90
64209;DHT22;50527;52.414;13.226;2022-10-20T03:06:45;5.30;99.90
64209;DHT22;50527;52.414;13.226;2022-10-20T03:09:11;5.30;99.90
64209;DHT22;50527;52.414;13.226;2022-10-20T03:11:36;5.30;99.90
64209;DHT22;50527;52.414;13.226;2022-10-20T03:14:02;5.30;99.90
64209;DHT22;50527;52.414;13.226;2022-10-20T03:16:27;5.30;99.90
64209;DHT22;50527;52.414;13.226;2022-10-20T03:18:53;5.30;99.90
64209;DHT22;50527;52.414;13.226;2022-10-20T03:21:19;5.30;99.90
64209;DHT22;50527;52.414;13.226;2022-10-20T03:23:45;5.30;99.90
64209;DHT22;50527;52.414;13.226;2022-10-20T03:26:11;5.20;99.90
64209;DHT22;50527;52.414;13.226;2022-10-20T03:28:37;5.20;99.90
64209;DHT22;50527;52.414;13.226;2022-10-20T03:31:02;5.30;99.90
64209;DHT22;50527;52.414;13.226;2022-10-20T03:33:28;5.20;99.90
64209;DHT22;50527;52.414;13.226;2022-10-20T03:35:54;5.20;99.90
64209;DHT22;50527;52.414;13.226;2022-10-20T03:38:19;5.20;99.90
64209;DHT22;50527;52.414;13.226;2022-10-20T03:40:45;5.20;99.90
64209;DHT22;50527;52.414;13.226;2022-10-20T03:43:10;5.30;99.90
64209;DHT22;50527;52.414;13.226;2022-10-20T03:45:36;5.20;99.90
64209;DHT22;50527;52.414;13.226;2022-10-20T03:48:01;5.20;99.90
64209;DHT22;50527;52.414;13.226;2022-10-20T03:50:27;5.20;99.90
64209;DHT22;50527;52.414;13.226;2022-10-20T03:52:52;5.20;99.90
64209;DHT22;50527;52.414;13.226;2022-10-20T03:55:18;5.20;99.90
64209;DHT22;50527;52.414;13.226;2022-10-20T03:57:44;5.20;99.90
64209;DHT22;50527;52.414;13.226;2022-10-20T04:00:11;5.20;99.90
64209;DHT22;50527;52.414;13.226;2022-10-20T04:02:39;5.20;99.90
64209;DHT22;50527;52.414;13.226;2022-10-20T04:05:06;5.20;99.90
64209;DHT22;50527;52.414;13.226;2022-10-20T04:07:31;5.20;99.90
64209;DHT22;50527;52.414;13.226;2022-10-20T04:09:57;5.20;99.90
64209;DHT22;50527;52.414;13.226;2022-10-20T04:12:23;5.20;99.90
64209;DHT22;50527;52.414;13.226;2022-10-20T04:14:49;5.20;99.90
64209;DHT22;50527;52.414;13.226;2022-10-20T04:17:15;5.20;99.90
64209;DHT22;50527;52.414;13.226;2022-10-20T04:19:40;5.30;99.90
64209;DHT22;50527;52.414;13.226;2022-10-20T04:22:06;5.30;99.90
64209;DHT22;50527;52.414;13.226;2022-10-20T04:24:32;5.20;99.90
64209;DHT22;50527;52.414;13.226;2022-10-20T04:26:58;5.30;99.90
64209;DHT22;50527;52.414;13.226;2022-10-20T04:29:23;5.30;99.90
64209;DHT22;50527;52.414;13.226;2022-10-20T04:31:49;5.30;99.90
64209;DHT22;50527;52.414;13.226;2022-10-20T04:34:14;5.20;99.90
64209;DHT22;50527;52.414;13.226;2022-10-20T04:36:40;5.20;99.90
64209;DHT22;50527;52.414;13.226;2022-10-20T04:39:06;5.30;99.90
64209;DHT22;50527;52.414;13.226;2022-10-20T04:41:31;5.20;99.90
64209;DHT22;50527;52.414;13.226;2022-10-20T04:43:57;5.20;99.90
64209;DHT22;50527;52.414;13.226;2022-10-20T04:46:22;5.20;99.90
64209;DHT22;50527;52.414;13.226;2022-10-20T04:48:48;5.30;99.90
64209;DHT22;50527;52.414;13.226;2022-10-20T04:51:15;5.30;99.90
64209;DHT22;50527;52.414;13.226;2022-10-20T04:53:41;5.30;99.90
64209;DHT22;50527;52.414;13.226;2022-10-20T04:56:09;5.30;99.90
64209;DHT22;50527;52.414;13.226;2022-10-20T04:58:35;5.30;99.90
64209;DHT22;50527;52.414;13.226;2022-10-20T05:01:04;5.30;99.90
64209;DHT22;50527;52.414;13.226;2022-10-20T05:03:30;5.20;99.90
64209;DHT22;50527;52.414;13.226;2022-10-20T05:06:08;5.20;99.90
64209;DHT22;50527;52.414;13.226;2022-10-20T05:08:34;5.20;99.90
64209;DHT22;50527;52.414;13.226;2022-10-20T05:11:00;5.30;99.90
64209;DHT22;50527;52.414;13.226;2022-10-20T05:13:25;5.20;99.90
64209;DHT22;50527;52.414;13.226;2022-10-20T05:15:52;5.20;99.90
64209;DHT22;50527;52.414;13.226;2022-10-20T05:18:17;5.10;99.90
64209;DHT22;50527;52.414;13.226;2022-10-20T05:20:42;5.10;99.90
64209;DHT22;50527;52.414;13.226;2022-10-20T05:23:08;5.10;99.90
64209;DHT22;50527;52.414;13.226;2022-10-20T05:25:36;5.20;99.90
64209;DHT22;50527;52.414;13.226;2022-10-20T05:28:01;5.10;99.90
64209;DHT22;50527;52.414;13.226;2022-10-20T05:30:27;5.10;99.90
64209;DHT22;50527;52.414;13.226;2022-10-20T05:32:52;5.10;99.90
64209;DHT22;50527;52.414;13.226;2022-10-20T05:35:18;5.10;99.90
64209;DHT22;50527;52.414;13.226;2022-10-20T05:37:44;5.20;99.90
64209;DHT22;50527;52.414;13.226;2022-10-20T05:40:10;5.10;99.90
64209;DHT22;50527;52.414;13.226;2022-10-20T05:42:35;5.10;99.90
64209;DHT22;50527;52.414;13.226;2022-10-20T05:45:01;5.10;99.90
64209;DHT22;50527;52.414;13.226;2022-10-20T05:47:26;5.10;99.90
64209;DHT22;50527;52.414;13.226;2022-10-20T05:49:51;5.10;99.90
64209;DHT22;50527;52.414;13.226;2022-10-20T05:52:17;5.20;99.90
64209;DHT22;50527;52.414;13.226;2022-10-20T05:54:43;5.10;99.90
64209;DHT22;50527;52.414;13.226;2022-10-20T05:57:08;5.20;99.90
64209;DHT22;50527;52.414;13.226;2022-10-20T05:59:34;5.20;99.90
64209;DHT22;50527;52.414;13.226;2022-10-20T06:01:59;5.20;99.90
64209;DHT22;50527;52.414;13.226;2022-10-20T06:04:24;5.30;99.90
64209;DHT22;50527;52.414;13.226;2022-10-20T06:06:53;5.30;99.90
64209;DHT22;50527;52.414;13.226;2022-10-20T06:09:20;5.40;99.90
64209;DHT22;50527;52.414;13.226;2022-10-20T06:11:47;5.40;99.90
64209;DHT22;50527;52.414;13.226;2022-10-20T06:14:13;5.30;99.90
64209;DHT22;50527;52.414;13.226;2022-10-20T06:16:38;5.40;99.90
64209;DHT22;50527;52.414;13.226;2022-10-20T06:19:04;5.30;99.90
64209;DHT22;50527;52.414;13.226;2022-10-20T06:21:32;5.30;99.90
64209;DHT22;50527;52.414;13.226;2022-10-20T06:23:58;5.30;99.90
64209;DHT22;50527;52.414;13.226;2022-10-20T06:26:27;5.30;99.90
64209;DHT22;50527;52.414;13.226;2022-10-20T06:29:00;5.40;99.90
64209;DHT22;50527;52.414;13.226;2022-10-20T06:31:28;5.40;99.90
64209;DHT22;50527;52.414;13.226;2022-10-20T06:33:54;5.50;99.90
64209;DHT22;50527;52.414;13.226;2022-10-20T06:36:21;5.50;99.90
64209;DHT22;50527;52.414;13.226;2022-10-20T06:38:47;5.50;99.90
64209;DHT22;50527;52.414;13.226;2022-10-20T06:41:15;5.50;99.90
64209;DHT22;50527;52.414;13.226;2022-10-20T06:43:41;5.60;99.90
64209;DHT22;50527;52.414;13.226;2022-10-20T06:46:10;5.60;99.90
64209;DHT22;50527;52.414;13.226;2022-10-20T06:48:36;5.60;99.90
64209;DHT22;50527;52.414;13.226;2022-10-20T06:51:05;5.70;99.90
64209;DHT22;50527;52.414;13.226;2022-10-20T06:53:31;5.80;99.90
64209;DHT22;50527;52.414;13.226;2022-10-20T06:56:10;5.90;99.90
64209;DHT22;50527;52.414;13.226;2022-10-20T06:58:36;5.90;99.90
64209;DHT22;50527;52.414;13.226;2022-10-20T07:01:06;6.00;99.90
64209;DHT22;50527;52.414;13.226;2022-10-20T07:03:34;6.10;99.90
64209;DHT22;50527;52.414;13.226;2022-10-20T07:05:59;6.20;99.90
64209;DHT22;50527;52.414;13.226;2022-10-20T07:08:30;6.20;99.90
64209;DHT22;50527;52.414;13.226;2022-10-20T07:13:26;6.40;99.90
64209;DHT22;50527;52.414;13.226;2022-10-20T07:15:53;6.50;99.90
64209;DHT22;50527;52.414;13.226;2022-10-20T07:18:19;6.50;99.90
64209;DHT22;50527;52.414;13.226;2022-10-20T07:20:45;6.50;99.90
64209;DHT22;50527;52.414;13.226;2022-10-20T07:23:10;6.60;99.90
64209;DHT22;50527;52.414;13.226;2022-10-20T07:25:36;6.70;99.90
64209;DHT22;50527;52.414;13.226;2022-10-20T07:28:01;6.70;99.90
64209;DHT22;50527;52.414;13.226;2022-10-20T07:30:27;6.80;99.90
64209;DHT22;50527;52.414;13.226;2022-10-20T07:32:52;6.80;99.90
64209;DHT22;50527;52.414;13.226;2022-10-20T07:35:18;6.90;99.90
64209;DHT22;50527;52.414;13.226;2022-10-20T07:37:43;7.00;99.90
64209;DHT22;50527;52.414;13.226;2022-10-20T07:40:09;7.10;99.90
64209;DHT22;50527;52.414;13.226;2022-10-20T07:42:35;7.10;99.90
64209;DHT22;50527;52.414;13.226;2022-10-20T07:45:00;7.20;99.90
64209;DHT22;50527;52.414;13.226;2022-10-20T07:47:26;7.30;99.90
64209;DHT22;50527;52.414;13.226;2022-10-20T07:49:51;7.50;99.90
64209;DHT22;50527;52.414;13.226;2022-10-20T07:52:17;7.50;99.90
64209;DHT22;50527;52.414;13.226;2022-10-20T07:54:43;7.50;99.90
64209;DHT22;50527;52.414;13.226;2022-10-20T07:57:08;7.60;99.90
64209;DHT22;50527;52.414;13.226;2022-10-20T07:59:34;7.60;99.90
64209;DHT22;50527;52.414;13.226;2022-10-20T08:01:59;7.70;99.90
64209;DHT22;50527;52.414;13.226;2022-10-20T08:04:25;7.80;99.20
64209;DHT22;50527;52.414;13.226;2022-10-20T08:06:50;8.00;99.30
64209;DHT22;50527;52.414;13.226;2022-10-20T08:09:16;8.00;99.30
64209;DHT22;50527;52.414;13.226;2022-10-20T08:11:41;8.10;99.50
64209;DHT22;50527;52.414;13.226;2022-10-20T08:14:07;8.20;98.00
64209;DHT22;50527;52.414;13.226;2022-10-20T08:16:32;8.30;97.70
64209;DHT22;50527;52.414;13.226;2022-10-20T08:18:59;8.50;97.00
64209;DHT22;50527;52.414;13.226;2022-10-20T08:21:24;8.60;96.40
64209;DHT22;50527;52.414;13.226;2022-10-20T08:23:50;8.80;95.50
64209;DHT22;50527;52.414;13.226;2022-10-20T08:26:24;8.90;96.20
64209;DHT22;50527;52.414;13.226;2022-10-20T08:28:51;9.00;96.40
64209;DHT22;50527;52.414;13.226;2022-10-20T08:31:17;9.10;95.70
64209;DHT22;50527;52.414;13.226;2022-10-20T08:33:43;9.10;94.30
64209;DHT22;50527;52.414;13.226;2022-10-20T08:36:11;9.20;93.20
64209;DHT22;50527;52.414;13.226;2022-10-20T08:38:37;9.30;92.70
64209;DHT22;50527;52.414;13.226;2022-10-20T08:41:06;9.40;92.20
64209;DHT22;50527;52.414;13.226;2022-10-20T08:43:39;9.50;93.10
64209;DHT22;50527;52.414;13.226;2022-10-20T08:46:05;9.70;92.30
64209;DHT22;50527;52.414;13.226;2022-10-20T08:48:33;9.80;90.30
64209;DHT22;50527;52.414;13.226;2022-10-20T08:50:58;9.80;90.70
64209;DHT22;50527;52.414;13.226;2022-10-20T08:53:25;9.90;90.50
64209;DHT22;50527;52.414;13.226;2022-10-20T08:55:53;10.00;90.90
64209;DHT22;50527;52.414;13.226;2022-10-20T08:58:22;10.10;90.80
64209;DHT22;50527;52.414;13.226;2022-10-20T09:00:54;10.40;89.50
64209;DHT22;50527;52.414;13.226;2022-10-20T09:03:22;11.10;86.90
64209;DHT22;50527;52.414;13.226;2022-10-20T09:05:53;11.60;81.90
64209;DHT22;50527;52.414;13.226;2022-10-20T09:08:22;11.40;81.40
64209;DHT22;50527;52.414;13.226;2022-10-20T09:10:51;11.30;82.00
64209;DHT22;50527;52.414;13.226;2022-10-20T09:13:28;11.60;79.00
64209;DHT22;50527;52.414;13.226;2022-10-20T09:16:02;11.70;81.00
64209;DHT22;50527;52.414;13.226;2022-10-20T09:18:30;11.90;77.90
64209;DHT22;50527;52.414;13.226;2022-10-20T09:21:06;12.20;77.90
64209;DHT22;50527;52.414;13.226;2022-10-20T09:23:44;12.20;76.10
64209;DHT22;50527;52.414;13.226;2022-10-20T09:26:15;12.30;74.50
64209;DHT22;50527;52.414;13.226;2022-10-20T09:28:41;12.50;73.70
64209;DHT22;50527;52.414;13.226;2022-10-20T09:31:32;12.60;73.40
64209;DHT22;50527;52.414;13.226;2022-10-20T09:33:58;12.70;73.10
64209;DHT22;50527;52.414;13.226;2022-10-20T09:36:29;12.50;73.60
64209;DHT22;50527;52.414;13.226;2022-10-20T09:38:55;12.40;74.90
64209;DHT22;50527;52.414;13.226;2022-10-20T09:41:22;12.30;74.20
64209;DHT22;50527;52.414;13.226;2022-10-20T09:44:16;12.30;74.80
64209;DHT22;50527;52.414;13.226;2022-10-20T09:46:49;12.20;75.20
64209;DHT22;50527;52.414;13.226;2022-10-20T09:49:31;12.20;76.10
64209;DHT22;50527;52.414;13.226;2022-10-20T09:51:59;12.00;76.00
64209;DHT22;50527;52.414;13.226;2022-10-20T09:54:26;12.00;77.40
64209;DHT22;50527;52.414;13.226;2022-10-20T09:56:53;12.00;77.20
64209;DHT22;50527;52.414;13.226;2022-10-20T09:59:39;12.10;78.20
64209;DHT22;50527;52.414;13.226;2022-10-20T10:04:44;12.00;78.20
64209;DHT22;50527;52.414;13.226;2022-10-20T10:12:30;12.20;77.30
64209;DHT22;50527;52.414;13.226;2022-10-20T10:17:42;12.30;75.90
64209;DHT22;50527;52.414;13.226;2022-10-20T10:22:37;12.40;74.50
64209;DHT22;50527;52.414;13.226;2022-10-20T10:25:04;12.50;74.20
64209;DHT22;50527;52.414;13.226;2022-10-20T10:27:35;12.60;74.70
64209;DHT22;50527;52.414;13.226;2022-10-20T10:32:48;12.90;69.70
64209;DHT22;50527;52.414;13.226;2022-10-20T10:35:30;13.00;70.50
64209;DHT22;50527;52.414;13.226;2022-10-20T10:37:57;13.10;70.00
64209;DHT22;50527;52.414;13.226;2022-10-20T10:40:37;13.20;69.30
64209;DHT22;50527;52.414;13.226;2022-10-20T10:46:07;13.60;67.00
64209;DHT22;50527;52.414;13.226;2022-10-20T10:57:04;14.30;64.00
64209;DHT22;50527;52.414;13.226;2022-10-20T10:59:35;14.20;65.70
64209;DHT22;50527;52.414;13.226;2022-10-20T11:02:50;14.40;64.00
64209;DHT22;50527;52.414;13.226;2022-10-20T11:08:09;14.70;62.90
64209;DHT22;50527;52.414;13.226;2022-10-20T11:10:52;14.90;62.10
64209;DHT22;50527;52.414;13.226;2022-10-20T11:13:39;14.90;64.30
64209;DHT22;50527;52.414;13.226;2022-10-20T11:16:11;15.10;62.90
64209;DHT22;50527;52.414;13.226;2022-10-20T11:25:06;15.00;61.00
64209;DHT22;50527;52.414;13.226;2022-10-20T11:27:37;15.00;62.10
64209;DHT22;50527;52.414;13.226;2022-10-20T11:36:07;14.90;60.60
64209;DHT22;50527;52.414;13.226;2022-10-20T11:38:45;14.80;60.70
64209;DHT22;50527;52.414;13.226;2022-10-20T11:41:14;14.90;61.30
64209;DHT22;50527;52.414;13.226;2022-10-20T11:43:46;14.80;60.10
64209;DHT22;50527;52.414;13.226;2022-10-20T11:46:20;14.70;60.30
64209;DHT22;50527;52.414;13.226;2022-10-20T11:48:53;14.70;61.50
64209;DHT22;50527;52.414;13.226;2022-10-20T11:57:01;14.70;62.30
64209;DHT22;50527;52.414;13.226;2022-10-20T12:11:27;14.70;62.10
64209;DHT22;50527;52.414;13.226;2022-10-20T12:19:27;14.60;61.90
64209;DHT22;50527;52.414;13.226;2022-10-20T12:22:02;14.60;61.00
64209;DHT22;50527;52.414;13.226;2022-10-20T12:24:29;14.60;61.20
64209;DHT22;50527;52.414;13.226;2022-10-20T12:37:35;14.90;60.10
64209;DHT22;50527;52.414;13.226;2022-10-20T12:42:47;14.90;60.10
64209;DHT22;50527;52.414;13.226;2022-10-20T12:48:18;14.90;59.50
64209;DHT22;50527;52.414;13.226;2022-10-20T12:50:45;14.90;58.50
64209;DHT22;50527;52.414;13.226;2022-10-20T12:53:27;14.90;60.90
64209;DHT22;50527;52.414;13.226;2022-10-20T12:55:56;14.80;58.70
64209;DHT22;50527;52.414;13.226;2022-10-20T13:05:57;14.80;58.40
64209;DHT22;50527;52.414;13.226;2022-10-20T13:08:28;14.70;59.90
64209;DHT22;50527;52.414;13.226;2022-10-20T13:10:54;14.80;60.00
64209;DHT22;50527;52.414;13.226;2022-10-20T13:15:49;14.80;60.00
64209;DHT22;50527;52.414;13.226;2022-10-20T13:18:32;14.80;59.70
64209;DHT22;50527;52.414;13.226;2022-10-20T13:23:55;14.70;58.40
64209;DHT22;50527;52.414;13.226;2022-10-20T13:26:28;14.70;58.80
64209;DHT22;50527;52.414;13.226;2022-10-20T13:28:56;14.60;59.30
64209;DHT22;50527;52.414;13.226;2022-10-20T13:31:35;14.50;60.50
64209;DHT22;50527;52.414;13.226;2022-10-20T13:34:15;14.50;59.20
64209;DHT22;50527;52.414;13.226;2022-10-20T13:42:30;14.30;59.90
64209;DHT22;50527;52.414;13.226;2022-10-20T13:48:02;14.30;62.00
64209;DHT22;50527;52.414;13.226;2022-10-20T13:50:35;14.40;61.20
64209;DHT22;50527;52.414;13.226;2022-10-20T13:53:11;14.40;60.60
64209;DHT22;50527;52.414;13.226;2022-10-20T13:55:58;14.40;60.30
64209;DHT22;50527;52.414;13.226;2022-10-20T13:58:26;14.30;61.40
64209;DHT22;50527;52.414;13.226;2022-10-20T14:03:42;14.20;60.50
64209;DHT22;50527;52.414;13.226;2022-10-20T14:06:29;14.20;61.70
64209;DHT22;50527;52.414;13.226;2022-10-20T14:08:55;14.10;61.20
64209;DHT22;50527;52.414;13.226;2022-10-20T14:11:22;14.10;62.00
64209;DHT22;50527;52.414;13.226;2022-10-20T14:13:49;14.10;61.90
64209;DHT22;50527;52.414;13.226;2022-10-20T14:16:22;14.00;61.40
64209;DHT22;50527;52.414;13.226;2022-10-20T14:19:06;14.00;62.70
64209;DHT22;50527;52.414;13.226;2022-10-20T14:21:44;14.00;61.50
64209;DHT22;50527;52.414;13.226;2022-10-20T14:24:27;14.00;62.10
64209;DHT22;50527;52.414;13.226;2022-10-20T14:26:55;14.00;62.40
64209;DHT22;50527;52.414;13.226;2022-10-20T14:29:21;14.00;62.00
64209;DHT22;50527;52.414;13.226;2022-10-20T14:31:48;14.10;61.50
64209;DHT22;50527;52.414;13.226;2022-10-20T14:34:22;14.00;61.30
64209;DHT22;50527;52.414;13.226;2022-10-20T14:36:49;14.10;61.30
64209;DHT22;50527;52.414;13.226;2022-10-20T14:39:35;14.10;61.70
64209;DHT22;50527;52.414;13.226;2022-10-20T14:42:04;14.10;61.20
64209;DHT22;50527;52.414;13.226;2022-10-20T14:44:42;14.10;61.10
64209;DHT22;50527;52.414;13.226;2022-10-20T14:47:11;14.00;62.20
64209;DHT22;50527;52.414;13.226;2022-10-20T14:49:39;14.00;60.90
64209;DHT22;50527;52.414;13.226;2022-10-20T14:54:41;13.90;62.20
64209;DHT22;50527;52.414;13.226;2022-10-20T14:59:34;13.70;62.80
64209;DHT22;50527;52.414;13.226;2022-10-20T15:04:34;13.70;64.00
64209;DHT22;50527;52.414;13.226;2022-10-20T15:12:17;13.60;64.80
64209;DHT22;50527;52.414;13.226;2022-10-20T15:14:47;13.50;66.00
64209;DHT22;50527;52.414;13.226;2022-10-20T15:17:36;13.40;66.20
64209;DHT22;50527;52.414;13.226;2022-10-20T15:20:30;13.40;65.60
64209;DHT22;50527;52.414;13.226;2022-10-20T15:23:06;13.20;66.70
64209;DHT22;50527;52.414;13.226;2022-10-20T15:25:53;13.10;67.60
64209;DHT22;50527;52.414;13.226;2022-10-20T15:31:27;13.10;67.10
64209;DHT22;50527;52.414;13.226;2022-10-20T15:33:54;13.00;68.30
64209;DHT22;50527;52.414;13.226;2022-10-20T15:36:26;12.80;68.60
64209;DHT22;50527;52.414;13.226;2022-10-20T15:38:58;12.80;68.70
64209;DHT22;50527;52.414;13.226;2022-10-20T15:41:30;12.70;69.50
64209;DHT22;50527;52.414;13.226;2022-10-20T15:43:55;12.60;70.60
64209;DHT22;50527;52.414;13.226;2022-10-20T15:46:26;12.50;71.10
64209;DHT22;50527;52.414;13.226;2022-10-20T15:48:51;12.50;71.10
64209;DHT22;50527;52.414;13.226;2022-10-20T15:51:26;12.40;71.60
64209;DHT22;50527;52.414;13.226;2022-10-20T15:53:52;12.30;71.70
64209;DHT22;50527;52.414;13.226;2022-10-20T15:56:18;12.30;72.40
64209;DHT22;50527;52.414;13.226;2022-10-20T15:58:45;12.30;72.80
64209;DHT22;50527;52.414;13.226;2022-10-20T16:01:14;12.20;72.50
64209;DHT22;50527;52.414;13.226;2022-10-20T16:03:41;12.10;72.80
64209;DHT22;50527;52.414;13.226;2022-10-20T16:06:08;12.10;73.10
64209;DHT22;50527;52.414;13.226;2022-10-20T16:08:33;12.00;74.20
64209;DHT22;50527;52.414;13.226;2022-10-20T16:11:01;12.00;74.40
64209;DHT22;50527;52.414;13.226;2022-10-20T16:13:26;11.90;74.80
64209;DHT22;50527;52.414;13.226;2022-10-20T16:15:52;11.90;75.30
64209;DHT22;50527;52.414;13.226;2022-10-20T16:18:17;11.80;74.90
64209;DHT22;50527;52.414;13.226;2022-10-20T16:20:42;11.80;75.20
64209;DHT22;50527;52.414;13.226;2022-10-20T16:23:08;11.70;75.80
64209;DHT22;50527;52.414;13.226;2022-10-20T16:25:33;11.70;74.60
64209;DHT22;50527;52.414;13.226;2022-10-20T16:27:59;11.70;75.50
64209;DHT22;50527;52.414;13.226;2022-10-20T16:30:24;11.60;75.00
64209;DHT22;50527;52.414;13.226;2022-10-20T16:32:50;11.70;73.60
64209;DHT22;50527;52.414;13.226;2022-10-20T16:35:15;11.60;75.10
64209;DHT22;50527;52.414;13.226;2022-10-20T16:37:41;11.70;73.90
64209;DHT22;50527;52.414;13.226;2022-10-20T16:40:08;11.70;73.20
64209;DHT22;50527;52.414;13.226;2022-10-20T16:42:34;11.70;74.00
64209;DHT22;50527;52.414;13.226;2022-10-20T16:44:59;11.60;74.50
64209;DHT22;50527;52.414;13.226;2022-10-20T16:47:25;11.50;74.90
64209;DHT22;50527;52.414;13.226;2022-10-20T16:49:50;11.50;76.50
64209;DHT22;50527;52.414;13.226;2022-10-20T16:52:16;11.40;76.70
64209;DHT22;50527;52.414;13.226;2022-10-20T16:54:42;11.40;76.50
64209;DHT22;50527;52.414;13.226;2022-10-20T16:57:07;11.30;76.50
64209;DHT22;50527;52.414;13.226;2022-10-20T16:59:36;11.20;76.90
64209;DHT22;50527;52.414;13.226;2022-10-20T17:02:01;11.20;77.70
64209;DHT22;50527;52.414;13.226;2022-10-20T17:04:27;11.20;77.40
64209;DHT22;50527;52.414;13.226;2022-10-20T17:06:52;11.10;78.00
64209;DHT22;50527;52.414;13.226;2022-10-20T17:09:18;11.10;78.60
64209;DHT22;50527;52.414;13.226;2022-10-20T17:11:43;11.00;79.20
64209;DHT22;50527;52.414;13.226;2022-10-20T17:14:09;10.90;80.00
64209;DHT22;50527;52.414;13.226;2022-10-20T17:16:34;10.90;81.20
64209;DHT22;50527;52.414;13.226;2022-10-20T17:19:03;10.90;81.70
64209;DHT22;50527;52.414;13.226;2022-10-20T17:21:30;10.80;82.50
64209;DHT22;50527;52.414;13.226;2022-10-20T17:23:56;10.80;83.00
64209;DHT22;50527;52.414;13.226;2022-10-20T17:26:23;10.80;83.30
64209;DHT22;50527;52.414;13.226;2022-10-20T17:28:52;10.80;84.50
64209;DHT22;50527;52.414;13.226;2022-10-20T17:31:17;10.80;85.70
64209;DHT22;50527;52.414;13.226;2022-10-20T17:33:44;10.80;85.40
64209;DHT22;50527;52.414;13.226;2022-10-20T17:36:10;10.80;86.10
64209;DHT22;50527;52.414;13.226;2022-10-20T17:38:36;10.70;86.60
64209;DHT22;50527;52.414;13.226;2022-10-20T17:41:04;10.70;86.90
64209;DHT22;50527;52.414;13.226;2022-10-20T17:43:29;10.70;87.20
64209;DHT22;50527;52.414;13.226;2022-10-20T17:45:56;10.70;88.60
64209;DHT22;50527;52.414;13.226;2022-10-20T17:48:22;10.60;89.00
64209;DHT22;50527;52.414;13.226;2022-10-20T17:51:00;10.70;89.00